createdAt,value
2019-04-23T00:01:26.851Z,40.60
2019-04-23T00:03:47.242Z,40.50
2019-04-23T00:06:23.561Z,40.40
2019-04-23T00:11:26.052Z,40.50
2019-04-23T00:14:00.631Z,40.50
2019-04-23T00:16:29.875Z,40.50
2019-04-23T00:18:58.968Z,40.50
2019-04-23T00:21:59.964Z,40.50
2019-04-23T00:25:34.461Z,40.60
2019-04-23T00:27:38.180Z,40.60
2019-04-23T00:30:12.978Z,40.60
2019-04-23T00:32:39.289Z,40.60
2019-04-23T00:35:12.882Z,40.90
2019-04-23T00:38:06.587Z,40.80
2019-04-23T00:40:19.090Z,40.80
2019-04-23T00:42:53.542Z,40.90
2019-04-23T00:45:32.714Z,41.20
2019-04-23T00:47:54.784Z,41.30
2019-04-23T00:50:40.591Z,41.40
2019-04-23T00:53:03.850Z,41.30
2019-04-23T00:55:44.430Z,41.40
2019-04-23T00:58:12.463Z,41.40
2019-04-23T01:03:20.583Z,41.40
2019-04-23T01:06:09.622Z,41.00
2019-04-23T01:08:24.923Z,41.60
2019-04-23T01:11:16.760Z,41.70
2019-04-23T01:13:42.661Z,41.50
2019-04-23T01:16:28.595Z,41.50
2019-04-23T01:18:54.442Z,41.40
2019-04-23T01:21:22.289Z,41.80
2019-04-23T01:24:07.193Z,41.70
2019-04-23T01:27:33.885Z,41.50
2019-04-23T01:29:52.140Z,41.80
2019-04-23T01:32:20.739Z,41.90
2019-04-23T01:34:59.449Z,42.50
2019-04-23T01:37:30.486Z,41.80
2019-04-23T01:39:57.905Z,41.80
2019-04-23T01:42:46.141Z,41.70
2019-04-23T01:45:07.031Z,41.90
2019-04-23T01:47:39.286Z,41.80
2019-04-23T01:50:20.475Z,41.70
2019-04-23T01:55:31.472Z,42.00
2019-04-23T02:00:34.084Z,42.00
2019-04-23T02:03:13.613Z,42.60
2019-04-23T02:05:43.157Z,42.20
2019-04-23T02:08:12.865Z,41.70
2019-04-23T02:10:51.345Z,41.80
2019-04-23T02:13:28.614Z,42.10
2019-04-23T02:16:03.031Z,42.30
2019-04-23T02:18:25.036Z,42.20
2019-04-23T02:20:59.567Z,42.40
2019-04-23T02:23:44.377Z,42.20
2019-04-23T02:26:23.296Z,42.10
2019-04-23T02:28:53.488Z,42.20
2019-04-23T02:31:44.891Z,42.20
2019-04-23T02:34:13.817Z,42.20
2019-04-23T02:36:40.552Z,42.40
2019-04-23T02:41:48.767Z,42.50
2019-04-23T02:44:21.773Z,42.40
2019-04-23T02:46:56.780Z,42.60
2019-04-23T03:02:37.232Z,42.90
2019-04-23T03:04:57.081Z,42.80
2019-04-23T03:12:31.779Z,43.10
2019-04-23T03:29:38.216Z,43.30
2019-04-23T03:39:55.091Z,43.40
2019-04-23T03:42:11.930Z,43.50
2019-04-23T03:45:00.631Z,43.60
2019-04-23T03:47:18.850Z,43.60
2019-04-23T03:49:50.693Z,43.80
2019-04-23T03:52:23.249Z,43.60
2019-04-23T04:00:08.169Z,43.70
2019-04-23T04:05:22.290Z,43.50
2019-04-23T04:10:02.232Z,43.70
2019-04-23T04:15:31.243Z,44.10
2019-04-23T04:17:50.282Z,43.40
2019-04-23T04:20:33.184Z,43.60
2019-04-23T04:23:19.650Z,43.70
2019-04-23T04:28:11.578Z,43.60
2019-04-23T04:30:41.117Z,44.30
2019-04-23T04:35:58.306Z,43.90
2019-04-23T04:41:02.919Z,43.90
2019-04-23T04:43:58.761Z,43.80
2019-04-23T04:56:28.032Z,43.70
2019-04-23T05:03:45.852Z,43.30
2019-04-23T05:09:04.928Z,43.20
2019-04-23T05:11:35.107Z,43.50
2019-04-23T05:14:08.560Z,43.30
2019-04-23T05:16:49.034Z,43.80
2019-04-23T05:21:55.674Z,43.10
2019-04-23T05:24:28.708Z,43.20
2019-04-23T05:26:57.952Z,43.10
2019-04-23T05:29:30.600Z,43.00
2019-04-23T05:31:58.218Z,43.70
2019-04-23T05:34:39.841Z,43.20
2019-04-23T05:37:17.058Z,42.90
2019-04-23T05:42:31.737Z,42.50
2019-04-23T05:44:51.033Z,42.60
2019-04-23T05:47:33.369Z,42.60
2019-04-23T05:50:00.672Z,42.60
2019-04-23T05:52:29.690Z,42.70
2019-04-23T05:55:04.064Z,42.20
2019-04-23T05:57:34.304Z,42.20
2019-04-23T06:00:08.949Z,42.40
2019-04-23T06:02:46.024Z,42.30
2019-04-23T06:10:23.421Z,42.30
2019-04-23T06:12:50.645Z,42.30
2019-04-23T06:15:28.684Z,42.30
2019-04-23T06:18:03.473Z,42.40
2019-04-23T06:20:34.967Z,41.80
2019-04-23T06:23:06.320Z,41.50
2019-04-23T06:28:09.747Z,41.50
2019-04-23T06:33:14.681Z,41.20
2019-04-23T06:35:45.485Z,41.10
2019-04-23T06:40:53.996Z,41.20
2019-04-23T06:44:01.953Z,41.40
2019-04-23T06:46:19.808Z,41.10
2019-04-23T06:48:54.851Z,41.40
2019-04-23T06:51:40.202Z,41.60
2019-04-23T06:53:57.800Z,41.50
2019-04-23T06:56:43.269Z,41.50
2019-04-23T06:59:12.441Z,41.60
2019-04-23T07:01:51.066Z,41.70
2019-04-23T07:06:58.305Z,42.00
2019-04-23T07:09:13.149Z,41.60
2019-04-23T07:11:49.810Z,42.20
2019-04-23T07:14:33.932Z,41.90
2019-04-23T07:16:58.402Z,41.80
2019-04-23T07:19:33.537Z,41.60
2019-04-23T07:24:35.661Z,41.80
2019-04-23T07:27:10.312Z,42.10
2019-04-23T07:29:40.579Z,41.90
2019-04-23T07:32:11.014Z,42.00
2019-04-23T07:34:52.590Z,42.30
2019-04-23T07:37:17.632Z,42.00
2019-04-23T07:40:24.503Z,41.70
2019-04-23T07:46:02.447Z,42.00
2019-04-23T07:48:43.892Z,42.10
2019-04-23T07:53:52.030Z,41.70
2019-04-23T07:56:07.376Z,41.80
2019-04-23T07:58:33.546Z,41.90
2019-04-23T08:01:14.219Z,42.10
2019-04-23T08:03:47.891Z,42.00
2019-04-23T08:06:17.956Z,42.20
2019-04-23T08:09:03.659Z,42.40
2019-04-23T08:11:52.398Z,41.80
2019-04-23T08:14:13.554Z,42.10
2019-04-23T08:16:53.035Z,42.30
2019-04-23T08:19:33.470Z,42.00
2019-04-23T08:22:10.520Z,41.70
2019-04-23T08:27:42.030Z,41.50
2019-04-23T08:30:09.308Z,41.90
2019-04-23T08:32:52.210Z,41.40
2019-04-23T08:35:22.624Z,41.00
2019-04-23T08:38:11.622Z,40.40
2019-04-23T08:40:36.923Z,40.50
2019-04-23T08:45:57.825Z,40.60
2019-04-23T08:51:19.620Z,40.00
2019-04-23T08:53:43.109Z,40.30
2019-04-23T08:56:38.504Z,40.00
2019-04-23T08:59:01.773Z,39.30
2019-04-23T09:01:39.667Z,39.20
2019-04-23T09:04:00.902Z,39.20
2019-04-23T09:06:35.363Z,39.30
2019-04-23T09:09:13.180Z,39.70
2019-04-23T09:14:05.229Z,39.10
2019-04-23T09:16:51.411Z,38.90
2019-04-23T09:19:35.237Z,39.20
2019-04-23T09:22:08.669Z,39.40
2019-04-23T09:24:40.038Z,39.50
2019-04-23T09:27:16.256Z,39.20
2019-04-23T09:30:00.945Z,38.60
2019-04-23T09:33:00.860Z,39.20
2019-04-23T09:35:48.704Z,39.70
2019-04-23T09:38:46.013Z,39.90
2019-04-23T09:47:16.001Z,40.60
2019-04-23T09:49:46.734Z,41.00
2019-04-23T09:52:20.121Z,40.50
2019-04-23T09:54:58.101Z,40.10
2019-04-23T09:57:32.001Z,40.30
2019-04-23T10:00:02.627Z,40.30
2019-04-23T10:02:26.414Z,40.00
2019-04-23T10:04:48.717Z,39.60
2019-04-23T10:07:21.035Z,39.90
2019-04-23T10:09:42.538Z,40.10
2019-04-23T10:12:14.636Z,39.80
2019-04-23T10:15:00.766Z,39.70
2019-04-23T10:17:24.325Z,39.20
2019-04-23T10:19:55.407Z,39.00
2019-04-23T10:22:27.247Z,39.40
2019-04-23T10:24:59.367Z,39.30
2019-04-23T10:27:30.612Z,39.30
2019-04-23T10:30:01.844Z,39.40
2019-04-23T10:32:33.537Z,39.10
2019-04-23T10:35:14.648Z,39.30
2019-04-23T10:37:48.977Z,39.20
2019-04-23T10:40:25.534Z,38.70
2019-04-23T10:42:52.261Z,38.40
2019-04-23T10:45:47.894Z,38.10
2019-04-23T10:49:25.899Z,38.20
2019-04-23T10:51:43.870Z,38.50
2019-04-23T10:59:38.948Z,37.60
2019-04-23T11:02:36.718Z,37.00
2019-04-23T11:10:05.644Z,36.00
2019-04-23T11:17:58.854Z,36.80
2019-04-23T11:20:29.994Z,36.70
2019-04-23T11:23:08.116Z,36.20
2019-04-23T11:28:05.664Z,37.40
2019-04-23T11:36:01.753Z,37.10
2019-04-23T11:38:43.715Z,37.70
2019-04-23T11:40:41.842Z,37.40
2019-04-23T11:46:07.990Z,37.70
2019-04-23T11:51:36.386Z,38.20
2019-04-23T11:56:19.590Z,38.90
2019-04-23T11:58:42.221Z,39.10
2019-04-23T12:01:42.233Z,39.40
2019-04-23T12:10:16.762Z,39.40
2019-04-23T12:12:33.367Z,40.50
2019-04-23T12:15:15.512Z,40.60
2019-04-23T12:17:47.124Z,40.90
2019-04-23T12:20:32.065Z,41.20
2019-04-23T12:25:28.026Z,41.20
2019-04-23T12:27:46.951Z,41.00
2019-04-23T12:30:39.536Z,41.00
2019-04-23T12:33:03.353Z,41.20
2019-04-23T12:35:43.406Z,40.70
2019-04-23T12:38:14.252Z,40.80
2019-04-23T12:40:38.367Z,40.80
2019-04-23T12:43:14.571Z,40.80
2019-04-23T12:45:56.420Z,40.90
2019-04-23T12:48:35.128Z,41.50
2019-04-23T12:51:08.152Z,41.80
2019-04-23T12:53:30.454Z,41.80
2019-04-23T12:56:22.000Z,42.10
2019-04-23T12:58:33.814Z,42.40
2019-04-23T13:01:13.957Z,42.50
2019-04-23T13:03:45.537Z,42.80
2019-04-23T13:06:20.429Z,42.00
2019-04-23T13:08:51.548Z,41.90
2019-04-23T13:11:33.357Z,41.80
2019-04-23T13:14:00.485Z,41.50
2019-04-23T13:16:46.778Z,40.70
2019-04-23T13:19:14.452Z,39.70
2019-04-23T13:24:32.850Z,38.60
2019-04-23T13:27:15.644Z,37.20
2019-04-23T13:29:50.168Z,36.90
2019-04-23T13:32:20.730Z,36.60
2019-04-23T13:46:14.120Z,36.20
2019-04-23T13:48:42.157Z,35.90
2019-04-23T13:51:21.141Z,35.70
2019-04-23T13:53:53.483Z,35.80
2019-04-23T13:56:39.532Z,36.10
2019-04-23T14:01:32.288Z,36.40
2019-04-23T14:04:26.922Z,37.50
2019-04-23T14:06:47.524Z,39.30
2019-04-23T14:09:23.610Z,39.30
2019-04-23T14:11:58.352Z,39.80
2019-04-23T14:20:04.989Z,41.50
2019-04-23T14:22:51.143Z,41.60
2019-04-23T14:27:37.241Z,41.20
2019-04-23T14:30:25.581Z,41.40
2019-04-23T14:32:49.925Z,41.00
2019-04-23T14:35:25.640Z,41.20
2019-04-23T14:38:01.655Z,41.10
2019-04-23T14:40:29.767Z,41.10
2019-04-23T14:43:10.939Z,41.00
2019-04-23T14:46:00.434Z,40.70
2019-04-23T14:48:17.574Z,40.70
2019-04-23T14:50:39.811Z,40.90
2019-04-23T14:53:18.242Z,41.20
2019-04-23T14:55:56.476Z,41.40
2019-04-23T14:58:42.585Z,41.30
2019-04-23T15:03:32.901Z,41.60
2019-04-23T15:06:12.645Z,42.00
2019-04-23T15:11:21.472Z,42.30
2019-04-23T15:13:44.697Z,42.10
2019-04-23T15:16:22.338Z,42.60
2019-04-23T15:19:22.149Z,43.00
2019-04-23T15:27:45.759Z,42.90
2019-04-23T15:28:58.727Z,43.00
2019-04-23T15:34:30.440Z,42.60
2019-04-23T15:37:25.726Z,42.80
2019-04-23T15:39:29.258Z,43.20
2019-04-23T15:42:08.856Z,43.50
2019-04-23T15:44:27.225Z,43.00
2019-04-23T15:47:10.677Z,43.10
2019-04-23T15:50:03.172Z,43.00
2019-04-23T15:52:33.251Z,43.00
2019-04-23T15:54:52.844Z,43.50
2019-04-23T15:57:18.114Z,43.60
2019-04-23T16:01:56.640Z,43.30
2019-04-23T16:04:29.582Z,42.90
2019-04-23T16:07:02.338Z,43.30
2019-04-23T16:10:09.420Z,43.50
2019-04-23T16:12:31.550Z,43.00
2019-04-23T16:17:41.734Z,42.70
2019-04-23T16:20:33.387Z,42.40
2019-04-23T16:22:51.408Z,42.40
2019-04-23T16:25:29.886Z,42.60
2019-04-23T16:28:09.346Z,42.70
2019-04-23T16:30:50.059Z,42.80
2019-04-23T16:33:30.250Z,43.40
2019-04-23T16:35:58.484Z,43.40
2019-04-23T16:38:45.318Z,43.50
2019-04-23T16:41:07.244Z,43.50
2019-04-23T16:43:33.936Z,43.50
2019-04-23T16:46:13.087Z,43.50
2019-04-23T16:49:03.240Z,43.40
2019-04-23T16:53:44.715Z,43.50
2019-04-23T16:56:26.000Z,43.50
2019-04-23T16:59:13.603Z,43.90
2019-04-23T17:01:26.546Z,43.90
2019-04-23T17:04:11.768Z,44.10
2019-04-23T17:06:38.527Z,44.30
2019-04-23T17:09:36.800Z,44.40
2019-04-23T17:11:53.054Z,44.60
2019-04-23T17:16:59.836Z,45.30
2019-04-23T17:22:07.010Z,46.00
2019-04-23T17:24:46.319Z,46.30
2019-04-23T17:27:22.774Z,46.00
2019-04-23T17:32:27.980Z,46.20
2019-04-23T17:40:18.284Z,46.40
2019-04-23T17:43:14.632Z,46.60
2019-04-23T17:45:50.876Z,46.80
2019-04-23T17:48:40.297Z,47.30
2019-04-23T17:53:38.268Z,48.10
2019-04-23T18:04:14.043Z,48.10
2019-04-23T18:06:41.048Z,47.90
2019-04-23T18:09:11.176Z,48.00
2019-04-23T18:11:31.327Z,48.40
2019-04-23T18:19:12.339Z,49.00
2019-04-23T18:22:07.423Z,49.00
2019-04-23T18:24:59.034Z,49.00
2019-04-23T18:27:27.545Z,49.00
2019-04-23T18:30:20.404Z,49.20
2019-04-23T18:33:34.024Z,48.90
2019-04-23T18:41:01.335Z,49.50
2019-04-23T18:45:55.672Z,49.50
2019-04-23T18:53:45.417Z,49.10
2019-04-23T19:06:34.398Z,49.50
2019-04-23T19:12:36.035Z,49.30
2019-04-23T19:17:48.171Z,49.00
2019-04-23T19:20:17.979Z,49.10
2019-04-23T19:27:51.830Z,49.70
2019-04-23T19:30:37.306Z,50.20
2019-04-23T19:33:14.199Z,50.30
2019-04-23T19:38:17.875Z,50.70
2019-04-23T19:43:41.540Z,50.40
2019-04-23T19:46:02.005Z,50.70
2019-04-23T19:48:42.178Z,50.80
2019-04-23T19:56:29.053Z,50.40
2019-04-23T19:58:46.780Z,50.50
2019-04-23T20:03:58.710Z,50.60
2019-04-23T20:06:32.755Z,50.40
2019-04-23T20:09:17.758Z,50.30
2019-04-23T20:11:38.152Z,50.20
2019-04-23T20:14:02.659Z,50.10
2019-04-23T20:16:50.581Z,50.10
2019-04-23T20:19:25.345Z,50.10
2019-04-23T20:22:00.576Z,50.30
2019-04-23T20:24:27.894Z,50.20
2019-04-23T20:27:06.048Z,50.30
2019-04-23T20:30:02.766Z,50.40
2019-04-23T20:32:56.304Z,50.40
2019-04-23T20:35:06.588Z,50.50
2019-04-23T20:38:05.147Z,50.40
2019-04-23T20:40:11.375Z,50.40
2019-04-23T20:42:37.129Z,50.40
2019-04-23T20:47:45.892Z,50.70
2019-04-23T20:50:10.571Z,50.60
2019-04-23T20:52:49.649Z,50.40
2019-04-23T20:55:37.022Z,50.40
2019-04-23T20:58:23.126Z,50.30
2019-04-23T21:01:13.269Z,50.30
2019-04-23T21:03:47.261Z,50.20
2019-04-23T21:09:24.089Z,50.10
2019-04-23T21:11:34.608Z,50.10
2019-04-23T21:14:22.367Z,50.10
2019-04-23T21:16:30.893Z,50.10
2019-04-23T21:18:55.098Z,49.90
2019-04-23T21:21:33.072Z,50.00
2019-04-23T21:24:16.905Z,50.00
2019-04-23T21:26:44.230Z,49.90
2019-04-23T21:29:04.013Z,49.90
2019-04-23T21:31:48.589Z,49.80
2019-04-23T21:34:17.751Z,50.20
2019-04-23T21:36:50.404Z,50.20
2019-04-23T21:42:54.301Z,50.00
2019-04-23T21:45:13.584Z,50.10
2019-04-23T21:47:51.856Z,50.10
2019-04-23T21:52:56.400Z,50.20
2019-04-23T21:55:36.503Z,50.30
2019-04-23T21:58:07.535Z,50.30
2019-04-23T22:00:42.351Z,50.30
2019-04-23T22:03:11.859Z,50.50
2019-04-23T22:05:45.989Z,50.60
2019-04-23T22:13:19.796Z,50.80
2019-04-23T22:16:01.794Z,50.60
2019-04-23T22:18:22.036Z,50.50
2019-04-23T22:20:48.901Z,50.50
2019-04-23T22:23:36.542Z,50.60
2019-04-23T22:26:07.823Z,50.50
2019-04-23T22:28:43.424Z,50.60
2019-04-23T22:31:12.493Z,50.50
2019-04-23T22:33:46.585Z,50.30
2019-04-23T22:36:21.022Z,50.30
2019-04-23T22:38:53.045Z,50.10
2019-04-23T22:41:28.590Z,50.10
2019-04-23T22:44:05.310Z,50.10
2019-04-23T22:46:36.967Z,50.10
2019-04-23T22:49:18.018Z,50.00
2019-04-23T22:51:47.551Z,49.90
2019-04-23T22:54:12.311Z,50.40
2019-04-23T22:56:50.114Z,49.80
2019-04-23T23:02:30.460Z,50.20
2019-04-23T23:04:28.662Z,50.60
2019-04-23T23:09:37.902Z,50.60
2019-04-23T23:12:04.374Z,50.50
2019-04-23T23:14:35.431Z,50.60
2019-04-23T23:17:16.244Z,50.50
2019-04-23T23:19:50.945Z,50.30
2019-04-23T23:22:18.383Z,50.30
2019-04-23T23:25:02.800Z,50.40
2019-04-23T23:27:23.722Z,50.60
2019-04-23T23:30:02.802Z,50.70
2019-04-23T23:32:33.469Z,51.20
2019-04-23T23:35:24.513Z,51.10
2019-04-23T23:37:37.316Z,51.10
2019-04-23T23:42:43.213Z,51.00
2019-04-23T23:45:18.422Z,51.00
2019-04-23T23:47:53.834Z,51.00
2019-04-23T23:53:02.763Z,50.80
2019-04-23T23:58:06.414Z,50.50
